sensor_id;sensor_type;location;lat;lon;timestamp;P1;durP1;ratioP1;P2;durP2;ratioP2
73136;SDS011;67767;45.636;11.756;2023-09-30T00:01:20;20.10;;;13.73;;
73136;SDS011;67767;45.636;11.756;2023-09-30T00:03:49;20.33;;;13.00;;
73136;SDS011;67767;45.636;11.756;2023-09-30T00:06:15;21.95;;;14.45;;
73136;SDS011;67767;45.636;11.756;2023-09-30T00:08:40;20.33;;;13.83;;
73136;SDS011;67767;45.636;11.756;2023-09-30T00:11:07;20.92;;;14.25;;
73136;SDS011;67767;45.636;11.756;2023-09-30T00:13:33;20.95;;;13.70;;
73136;SDS011;67767;45.636;11.756;2023-09-30T00:15:58;19.50;;;14.53;;
73136;SDS011;67767;45.636;11.756;2023-09-30T00:18:24;21.23;;;14.13;;
73136;SDS011;67767;45.636;11.756;2023-09-30T00:20:50;21.13;;;14.33;;
73136;SDS011;67767;45.636;11.756;2023-09-30T00:23:15;20.13;;;14.57;;
73136;SDS011;67767;45.636;11.756;2023-09-30T00:25:41;21.93;;;14.00;;
73136;SDS011;67767;45.636;11.756;2023-09-30T00:28:07;19.87;;;14.87;;
73136;SDS011;67767;45.636;11.756;2023-09-30T00:30:33;20.73;;;14.45;;
73136;SDS011;67767;45.636;11.756;2023-09-30T00:32:59;23.43;;;14.97;;
73136;SDS011;67767;45.636;11.756;2023-09-30T00:35:25;24.73;;;14.90;;
73136;SDS011;67767;45.636;11.756;2023-09-30T00:37:50;20.23;;;14.77;;
73136;SDS011;67767;45.636;11.756;2023-09-30T00:40:16;20.17;;;15.27;;
73136;SDS011;67767;45.636;11.756;2023-09-30T00:42:42;24.15;;;14.63;;
73136;SDS011;67767;45.636;11.756;2023-09-30T00:45:08;20.57;;;14.33;;
73136;SDS011;67767;45.636;11.756;2023-09-30T00:47:35;23.98;;;15.43;;
73136;SDS011;67767;45.636;11.756;2023-09-30T00:50:02;20.65;;;14.75;;
73136;SDS011;67767;45.636;11.756;2023-09-30T00:52:29;21.00;;;14.30;;
73136;SDS011;67767;45.636;11.756;2023-09-30T00:54:57;20.77;;;14.00;;
73136;SDS011;67767;45.636;11.756;2023-09-30T00:57:23;20.15;;;14.65;;
73136;SDS011;67767;45.636;11.756;2023-09-30T00:59:50;20.95;;;14.60;;
73136;SDS011;67767;45.636;11.756;2023-09-30T01:02:19;21.45;;;14.88;;
73136;SDS011;67767;45.636;11.756;2023-09-30T01:04:47;18.70;;;13.40;;
73136;SDS011;67767;45.636;11.756;2023-09-30T01:07:13;20.33;;;13.67;;
73136;SDS011;67767;45.636;11.756;2023-09-30T01:09:39;19.60;;;13.98;;
73136;SDS011;67767;45.636;11.756;2023-09-30T01:12:05;19.33;;;14.47;;
73136;SDS011;67767;45.636;11.756;2023-09-30T01:14:32;18.92;;;13.80;;
73136;SDS011;67767;45.636;11.756;2023-09-30T01:16:59;20.17;;;14.20;;
73136;SDS011;67767;45.636;11.756;2023-09-30T01:19:25;19.77;;;13.80;;
73136;SDS011;67767;45.636;11.756;2023-09-30T01:21:57;21.93;;;14.87;;
73136;SDS011;67767;45.636;11.756;2023-09-30T01:24:30;21.92;;;15.70;;
73136;SDS011;67767;45.636;11.756;2023-09-30T01:27:03;21.20;;;14.93;;
73136;SDS011;67767;45.636;11.756;2023-09-30T01:29:28;20.20;;;14.83;;
73136;SDS011;67767;45.636;11.756;2023-09-30T01:31:54;19.30;;;14.15;;
73136;SDS011;67767;45.636;11.756;2023-09-30T01:34:20;19.77;;;14.88;;
73136;SDS011;67767;45.636;11.756;2023-09-30T01:36:46;19.73;;;14.37;;
73136;SDS011;67767;45.636;11.756;2023-09-30T01:39:12;21.80;;;15.13;;
73136;SDS011;67767;45.636;11.756;2023-09-30T01:41:38;22.25;;;15.73;;
73136;SDS011;67767;45.636;11.756;2023-09-30T01:44:05;22.57;;;15.30;;
73136;SDS011;67767;45.636;11.756;2023-09-30T01:46:31;22.55;;;15.88;;
73136;SDS011;67767;45.636;11.756;2023-09-30T01:48:57;23.38;;;15.85;;
73136;SDS011;67767;45.636;11.756;2023-09-30T01:51:22;20.97;;;15.70;;
73136;SDS011;67767;45.636;11.756;2023-09-30T01:53:48;21.17;;;15.65;;
73136;SDS011;67767;45.636;11.756;2023-09-30T01:56:14;22.15;;;15.63;;
73136;SDS011;67767;45.636;11.756;2023-09-30T01:58:40;20.10;;;15.13;;
73136;SDS011;67767;45.636;11.756;2023-09-30T02:01:06;21.55;;;15.45;;
73136;SDS011;67767;45.636;11.756;2023-09-30T02:03:31;21.17;;;14.80;;
73136;SDS011;67767;45.636;11.756;2023-09-30T02:05:57;21.00;;;15.50;;
73136;SDS011;67767;45.636;11.756;2023-09-30T02:08:23;20.83;;;14.70;;
73136;SDS011;67767;45.636;11.756;2023-09-30T02:10:49;20.23;;;15.45;;
73136;SDS011;67767;45.636;11.756;2023-09-30T02:13:18;20.00;;;14.43;;
73136;SDS011;67767;45.636;11.756;2023-09-30T02:15:45;20.52;;;14.90;;
73136;SDS011;67767;45.636;11.756;2023-09-30T02:18:10;19.60;;;13.83;;
73136;SDS011;67767;45.636;11.756;2023-09-30T02:20:36;19.67;;;15.23;;
73136;SDS011;67767;45.636;11.756;2023-09-30T02:23:08;21.50;;;15.45;;
73136;SDS011;67767;45.636;11.756;2023-09-30T02:25:38;21.97;;;15.37;;
73136;SDS011;67767;45.636;11.756;2023-09-30T02:28:04;21.73;;;15.65;;
73136;SDS011;67767;45.636;11.756;2023-09-30T02:30:31;21.30;;;15.90;;
73136;SDS011;67767;45.636;11.756;2023-09-30T02:32:57;21.38;;;15.35;;
73136;SDS011;67767;45.636;11.756;2023-09-30T02:35:23;22.07;;;15.33;;
73136;SDS011;67767;45.636;11.756;2023-09-30T02:37:49;23.50;;;16.35;;
73136;SDS011;67767;45.636;11.756;2023-09-30T02:40:16;22.30;;;15.98;;
73136;SDS011;67767;45.636;11.756;2023-09-30T02:42:42;20.73;;;16.13;;
73136;SDS011;67767;45.636;11.756;2023-09-30T02:45:09;25.23;;;16.57;;
73136;SDS011;67767;45.636;11.756;2023-09-30T02:47:36;23.27;;;16.08;;
73136;SDS011;67767;45.636;11.756;2023-09-30T02:50:04;20.80;;;16.25;;
73136;SDS011;67767;45.636;11.756;2023-09-30T02:52:31;22.85;;;17.23;;
73136;SDS011;67767;45.636;11.756;2023-09-30T02:54:57;27.40;;;16.60;;
73136;SDS011;67767;45.636;11.756;2023-09-30T02:57:23;24.23;;;16.38;;
73136;SDS011;67767;45.636;11.756;2023-09-30T02:59:49;23.35;;;16.05;;
73136;SDS011;67767;45.636;11.756;2023-09-30T03:02:17;21.70;;;15.40;;
73136;SDS011;67767;45.636;11.756;2023-09-30T03:04:43;23.37;;;17.70;;
73136;SDS011;67767;45.636;11.756;2023-09-30T03:07:09;22.58;;;16.77;;
73136;SDS011;67767;45.636;11.756;2023-09-30T03:09:35;23.60;;;17.90;;
73136;SDS011;67767;45.636;11.756;2023-09-30T03:12:02;23.20;;;16.43;;
73136;SDS011;67767;45.636;11.756;2023-09-30T03:14:30;22.90;;;17.13;;
73136;SDS011;67767;45.636;11.756;2023-09-30T03:16:56;23.60;;;15.77;;
73136;SDS011;67767;45.636;11.756;2023-09-30T03:19:25;23.48;;;16.58;;
73136;SDS011;67767;45.636;11.756;2023-09-30T03:21:50;20.37;;;15.67;;
73136;SDS011;67767;45.636;11.756;2023-09-30T03:24:16;21.23;;;15.80;;
73136;SDS011;67767;45.636;11.756;2023-09-30T03:26:42;20.97;;;16.10;;
73136;SDS011;67767;45.636;11.756;2023-09-30T03:29:09;21.35;;;15.35;;
73136;SDS011;67767;45.636;11.756;2023-09-30T03:31:35;26.92;;;16.98;;
73136;SDS011;67767;45.636;11.756;2023-09-30T03:34:02;24.02;;;16.50;;
73136;SDS011;67767;45.636;11.756;2023-09-30T03:36:29;22.93;;;15.53;;
73136;SDS011;67767;45.636;11.756;2023-09-30T03:38:55;22.52;;;15.73;;
73136;SDS011;67767;45.636;11.756;2023-09-30T03:41:21;22.33;;;15.80;;
73136;SDS011;67767;45.636;11.756;2023-09-30T03:43:47;22.27;;;15.18;;
73136;SDS011;67767;45.636;11.756;2023-09-30T03:46:14;33.03;;;17.10;;
73136;SDS011;67767;45.636;11.756;2023-09-30T03:48:40;21.97;;;15.07;;
73136;SDS011;67767;45.636;11.756;2023-09-30T03:51:14;26.13;;;15.93;;
73136;SDS011;67767;45.636;11.756;2023-09-30T03:56:07;22.52;;;14.55;;
73136;SDS011;67767;45.636;11.756;2023-09-30T03:58:33;23.63;;;14.80;;
73136;SDS011;67767;45.636;11.756;2023-09-30T04:00:59;19.83;;;14.68;;
73136;SDS011;67767;45.636;11.756;2023-09-30T04:03:25;20.55;;;13.65;;
73136;SDS011;67767;45.636;11.756;2023-09-30T04:05:52;21.17;;;15.10;;
73136;SDS011;67767;45.636;11.756;2023-09-30T04:08:18;19.75;;;14.38;;
73136;SDS011;67767;45.636;11.756;2023-09-30T04:10:44;19.27;;;14.17;;
73136;SDS011;67767;45.636;11.756;2023-09-30T04:13:10;19.58;;;14.48;;
73136;SDS011;67767;45.636;11.756;2023-09-30T04:15:36;20.77;;;13.93;;
73136;SDS011;67767;45.636;11.756;2023-09-30T04:18:03;19.53;;;13.87;;
73136;SDS011;67767;45.636;11.756;2023-09-30T04:20:30;22.77;;;14.43;;
73136;SDS011;67767;45.636;11.756;2023-09-30T04:22:56;20.77;;;14.30;;
73136;SDS011;67767;45.636;11.756;2023-09-30T04:25:22;21.13;;;14.48;;
73136;SDS011;67767;45.636;11.756;2023-09-30T04:27:52;20.48;;;13.98;;
73136;SDS011;67767;45.636;11.756;2023-09-30T04:30:18;22.70;;;14.63;;
73136;SDS011;67767;45.636;11.756;2023-09-30T04:32:44;21.65;;;13.20;;
73136;SDS011;67767;45.636;11.756;2023-09-30T04:35:10;23.00;;;13.70;;
73136;SDS011;67767;45.636;11.756;2023-09-30T04:37:36;21.50;;;14.07;;
73136;SDS011;67767;45.636;11.756;2023-09-30T04:40:05;22.63;;;15.70;;
73136;SDS011;67767;45.636;11.756;2023-09-30T04:42:43;30.77;;;15.43;;
73136;SDS011;67767;45.636;11.756;2023-09-30T04:45:10;95.65;;;28.23;;
73136;SDS011;67767;45.636;11.756;2023-09-30T04:47:36;46.55;;;16.27;;
73136;SDS011;67767;45.636;11.756;2023-09-30T04:50:04;19.17;;;13.30;;
73136;SDS011;67767;45.636;11.756;2023-09-30T04:52:33;18.87;;;13.33;;
73136;SDS011;67767;45.636;11.756;2023-09-30T04:54:59;21.83;;;13.57;;
73136;SDS011;67767;45.636;11.756;2023-09-30T04:57:26;22.83;;;13.85;;
73136;SDS011;67767;45.636;11.756;2023-09-30T04:59:51;24.20;;;13.90;;
73136;SDS011;67767;45.636;11.756;2023-09-30T05:02:17;18.90;;;13.87;;
73136;SDS011;67767;45.636;11.756;2023-09-30T05:04:43;27.30;;;14.50;;
73136;SDS011;67767;45.636;11.756;2023-09-30T05:07:09;25.63;;;14.30;;
73136;SDS011;67767;45.636;11.756;2023-09-30T05:09:35;20.70;;;14.00;;
73136;SDS011;67767;45.636;11.756;2023-09-30T05:12:01;21.15;;;14.10;;
73136;SDS011;67767;45.636;11.756;2023-09-30T05:14:29;22.50;;;15.25;;
73136;SDS011;67767;45.636;11.756;2023-09-30T05:16:55;22.50;;;15.50;;
73136;SDS011;67767;45.636;11.756;2023-09-30T05:19:21;24.70;;;14.48;;
73136;SDS011;67767;45.636;11.756;2023-09-30T05:21:47;24.23;;;14.38;;
73136;SDS011;67767;45.636;11.756;2023-09-30T05:24:14;20.65;;;13.52;;
73136;SDS011;67767;45.636;11.756;2023-09-30T05:26:40;19.85;;;13.68;;
73136;SDS011;67767;45.636;11.756;2023-09-30T05:29:05;18.83;;;13.20;;
73136;SDS011;67767;45.636;11.756;2023-09-30T05:31:32;22.40;;;14.23;;
73136;SDS011;67767;45.636;11.756;2023-09-30T05:33:58;18.90;;;13.15;;
73136;SDS011;67767;45.636;11.756;2023-09-30T05:36:24;20.23;;;14.23;;
73136;SDS011;67767;45.636;11.756;2023-09-30T05:38:49;20.58;;;12.60;;
73136;SDS011;67767;45.636;11.756;2023-09-30T05:41:15;25.87;;;13.60;;
73136;SDS011;67767;45.636;11.756;2023-09-30T05:43:41;20.10;;;13.25;;
73136;SDS011;67767;45.636;11.756;2023-09-30T05:46:08;29.38;;;14.18;;
73136;SDS011;67767;45.636;11.756;2023-09-30T05:48:34;18.07;;;11.90;;
73136;SDS011;67767;45.636;11.756;2023-09-30T05:51:00;20.63;;;12.98;;
73136;SDS011;67767;45.636;11.756;2023-09-30T05:53:26;21.33;;;13.95;;
73136;SDS011;67767;45.636;11.756;2023-09-30T05:55:53;19.17;;;12.43;;
73136;SDS011;67767;45.636;11.756;2023-09-30T05:58:19;17.83;;;12.70;;
73136;SDS011;67767;45.636;11.756;2023-09-30T06:00:45;21.05;;;13.23;;
73136;SDS011;67767;45.636;11.756;2023-09-30T06:03:11;21.57;;;11.93;;
73136;SDS011;67767;45.636;11.756;2023-09-30T06:05:40;18.92;;;11.70;;
73136;SDS011;67767;45.636;11.756;2023-09-30T06:08:07;19.17;;;12.20;;
73136;SDS011;67767;45.636;11.756;2023-09-30T06:10:35;16.83;;;12.05;;
73136;SDS011;67767;45.636;11.756;2023-09-30T06:13:03;16.87;;;11.73;;
73136;SDS011;67767;45.636;11.756;2023-09-30T06:15:30;21.30;;;11.85;;
73136;SDS011;67767;45.636;11.756;2023-09-30T06:17:56;18.80;;;12.35;;
73136;SDS011;67767;45.636;11.756;2023-09-30T06:20:22;20.30;;;13.80;;
73136;SDS011;67767;45.636;11.756;2023-09-30T06:22:51;19.42;;;12.38;;
73136;SDS011;67767;45.636;11.756;2023-09-30T06:25:18;19.70;;;12.37;;
73136;SDS011;67767;45.636;11.756;2023-09-30T06:27:45;21.35;;;12.32;;
73136;SDS011;67767;45.636;11.756;2023-09-30T06:30:13;20.60;;;11.98;;
73136;SDS011;67767;45.636;11.756;2023-09-30T06:32:41;19.75;;;11.93;;
73136;SDS011;67767;45.636;11.756;2023-09-30T06:35:07;17.55;;;11.60;;
73136;SDS011;67767;45.636;11.756;2023-09-30T06:37:44;16.97;;;11.20;;
73136;SDS011;67767;45.636;11.756;2023-09-30T06:40:10;18.60;;;12.15;;
73136;SDS011;67767;45.636;11.756;2023-09-30T06:42:39;18.83;;;12.07;;
73136;SDS011;67767;45.636;11.756;2023-09-30T06:45:05;17.70;;;11.63;;
73136;SDS011;67767;45.636;11.756;2023-09-30T06:47:35;18.07;;;12.17;;
73136;SDS011;67767;45.636;11.756;2023-09-30T06:50:02;18.23;;;12.30;;
73136;SDS011;67767;45.636;11.756;2023-09-30T06:52:42;18.33;;;11.88;;
73136;SDS011;67767;45.636;11.756;2023-09-30T06:55:10;15.98;;;10.68;;
73136;SDS011;67767;45.636;11.756;2023-09-30T06:57:39;15.20;;;10.82;;
73136;SDS011;67767;45.636;11.756;2023-09-30T07:00:09;16.20;;;10.63;;
73136;SDS011;67767;45.636;11.756;2023-09-30T07:02:36;16.27;;;10.05;;
73136;SDS011;67767;45.636;11.756;2023-09-30T07:05:12;17.55;;;10.40;;
73136;SDS011;67767;45.636;11.756;2023-09-30T07:07:39;16.52;;;10.85;;
73136;SDS011;67767;45.636;11.756;2023-09-30T07:10:08;15.57;;;9.90;;
73136;SDS011;67767;45.636;11.756;2023-09-30T07:12:34;16.20;;;10.70;;
73136;SDS011;67767;45.636;11.756;2023-09-30T07:15:06;16.20;;;10.15;;
73136;SDS011;67767;45.636;11.756;2023-09-30T07:17:33;15.75;;;10.38;;
73136;SDS011;67767;45.636;11.756;2023-09-30T07:19:59;17.33;;;10.10;;
73136;SDS011;67767;45.636;11.756;2023-09-30T07:22:25;16.80;;;9.77;;
73136;SDS011;67767;45.636;11.756;2023-09-30T07:24:51;15.07;;;9.63;;
73136;SDS011;67767;45.636;11.756;2023-09-30T07:27:17;15.30;;;9.00;;
73136;SDS011;67767;45.636;11.756;2023-09-30T07:29:43;15.63;;;9.83;;
73136;SDS011;67767;45.636;11.756;2023-09-30T07:32:09;16.27;;;9.30;;
73136;SDS011;67767;45.636;11.756;2023-09-30T07:34:35;14.02;;;9.38;;
73136;SDS011;67767;45.636;11.756;2023-09-30T07:37:00;17.10;;;10.17;;
73136;SDS011;67767;45.636;11.756;2023-09-30T07:39:26;14.57;;;9.00;;
73136;SDS011;67767;45.636;11.756;2023-09-30T07:41:52;16.87;;;9.80;;
73136;SDS011;67767;45.636;11.756;2023-09-30T07:44:17;17.10;;;9.63;;
73136;SDS011;67767;45.636;11.756;2023-09-30T07:46:43;14.20;;;8.47;;
73136;SDS011;67767;45.636;11.756;2023-09-30T07:49:10;14.93;;;9.17;;
73136;SDS011;67767;45.636;11.756;2023-09-30T07:51:35;14.00;;;9.23;;
73136;SDS011;67767;45.636;11.756;2023-09-30T07:54:03;12.35;;;8.52;;
73136;SDS011;67767;45.636;11.756;2023-09-30T07:56:29;12.98;;;7.97;;
73136;SDS011;67767;45.636;11.756;2023-09-30T07:58:54;12.93;;;8.17;;
73136;SDS011;67767;45.636;11.756;2023-09-30T08:01:20;14.65;;;8.57;;
73136;SDS011;67767;45.636;11.756;2023-09-30T08:03:46;12.17;;;6.77;;
73136;SDS011;67767;45.636;11.756;2023-09-30T08:06:12;10.48;;;6.30;;
73136;SDS011;67767;45.636;11.756;2023-09-30T08:08:38;10.65;;;6.15;;
73136;SDS011;67767;45.636;11.756;2023-09-30T08:11:04;11.82;;;6.68;;
73136;SDS011;67767;45.636;11.756;2023-09-30T08:13:31;11.67;;;6.23;;
73136;SDS011;67767;45.636;11.756;2023-09-30T08:15:57;10.48;;;6.50;;
73136;SDS011;67767;45.636;11.756;2023-09-30T08:18:23;10.38;;;6.20;;
73136;SDS011;67767;45.636;11.756;2023-09-30T08:20:49;8.87;;;5.83;;
73136;SDS011;67767;45.636;11.756;2023-09-30T08:23:15;11.77;;;6.30;;
73136;SDS011;67767;45.636;11.756;2023-09-30T08:25:41;9.80;;;5.75;;
73136;SDS011;67767;45.636;11.756;2023-09-30T08:28:07;11.17;;;6.13;;
73136;SDS011;67767;45.636;11.756;2023-09-30T08:30:34;9.70;;;6.43;;
73136;SDS011;67767;45.636;11.756;2023-09-30T08:33:01;15.80;;;6.93;;
73136;SDS011;67767;45.636;11.756;2023-09-30T08:35:35;16.17;;;6.70;;
73136;SDS011;67767;45.636;11.756;2023-09-30T08:38:02;9.95;;;6.55;;
73136;SDS011;67767;45.636;11.756;2023-09-30T08:40:28;10.33;;;6.47;;
73136;SDS011;67767;45.636;11.756;2023-09-30T08:42:54;13.02;;;6.43;;
73136;SDS011;67767;45.636;11.756;2023-09-30T08:45:20;13.02;;;7.22;;
73136;SDS011;67767;45.636;11.756;2023-09-30T08:47:46;10.53;;;6.70;;
73136;SDS011;67767;45.636;11.756;2023-09-30T08:50:12;10.27;;;6.35;;
73136;SDS011;67767;45.636;11.756;2023-09-30T08:52:42;11.05;;;6.50;;
73136;SDS011;67767;45.636;11.756;2023-09-30T08:55:09;10.02;;;6.03;;
73136;SDS011;67767;45.636;11.756;2023-09-30T08:57:42;10.87;;;6.23;;
73136;SDS011;67767;45.636;11.756;2023-09-30T09:00:09;10.63;;;6.55;;
73136;SDS011;67767;45.636;11.756;2023-09-30T09:02:36;11.80;;;7.07;;
73136;SDS011;67767;45.636;11.756;2023-09-30T09:05:03;10.48;;;6.30;;
73136;SDS011;67767;45.636;11.756;2023-09-30T09:07:29;12.07;;;6.60;;
73136;SDS011;67767;45.636;11.756;2023-09-30T09:10:08;11.32;;;6.20;;
73136;SDS011;67767;45.636;11.756;2023-09-30T09:12:36;12.30;;;6.78;;
73136;SDS011;67767;45.636;11.756;2023-09-30T09:15:07;10.35;;;6.45;;
73136;SDS011;67767;45.636;11.756;2023-09-30T09:17:45;10.82;;;6.43;;
73136;SDS011;67767;45.636;11.756;2023-09-30T09:20:11;11.97;;;6.60;;
73136;SDS011;67767;45.636;11.756;2023-09-30T09:22:45;11.48;;;7.28;;
73136;SDS011;67767;45.636;11.756;2023-09-30T09:25:12;13.27;;;7.82;;
73136;SDS011;67767;45.636;11.756;2023-09-30T09:27:38;12.68;;;6.72;;
73136;SDS011;67767;45.636;11.756;2023-09-30T09:30:20;12.17;;;7.43;;
73136;SDS011;67767;45.636;11.756;2023-09-30T09:35:31;12.07;;;7.30;;
73136;SDS011;67767;45.636;11.756;2023-09-30T09:38:05;14.43;;;7.30;;
73136;SDS011;67767;45.636;11.756;2023-09-30T09:40:33;13.43;;;7.87;;
73136;SDS011;67767;45.636;11.756;2023-09-30T09:43:05;11.00;;;7.70;;
73136;SDS011;67767;45.636;11.756;2023-09-30T09:45:32;13.75;;;7.18;;
73136;SDS011;67767;45.636;11.756;2023-09-30T09:47:59;12.43;;;6.90;;
73136;SDS011;67767;45.636;11.756;2023-09-30T09:50:26;12.57;;;7.50;;
73136;SDS011;67767;45.636;11.756;2023-09-30T09:52:53;11.03;;;6.70;;
73136;SDS011;67767;45.636;11.756;2023-09-30T09:55:21;12.88;;;7.35;;
73136;SDS011;67767;45.636;11.756;2023-09-30T09:57:48;14.38;;;7.35;;
73136;SDS011;67767;45.636;11.756;2023-09-30T10:00:15;13.65;;;7.32;;
73136;SDS011;67767;45.636;11.756;2023-09-30T10:02:43;13.27;;;7.22;;
73136;SDS011;67767;45.636;11.756;2023-09-30T10:05:11;11.83;;;7.80;;
73136;SDS011;67767;45.636;11.756;2023-09-30T10:07:38;12.45;;;8.18;;
73136;SDS011;67767;45.636;11.756;2023-09-30T10:10:25;13.85;;;8.60;;
73136;SDS011;67767;45.636;11.756;2023-09-30T10:12:53;13.38;;;8.35;;
73136;SDS011;67767;45.636;11.756;2023-09-30T10:18:00;12.17;;;7.70;;
73136;SDS011;67767;45.636;11.756;2023-09-30T10:20:32;13.93;;;8.50;;
73136;SDS011;67767;45.636;11.756;2023-09-30T10:23:24;13.68;;;8.30;;
73136;SDS011;67767;45.636;11.756;2023-09-30T10:25:51;12.07;;;7.82;;
73136;SDS011;67767;45.636;11.756;2023-09-30T10:28:35;13.15;;;7.80;;
73136;SDS011;67767;45.636;11.756;2023-09-30T10:31:18;13.30;;;8.03;;
73136;SDS011;67767;45.636;11.756;2023-09-30T10:38:55;13.85;;;7.53;;
73136;SDS011;67767;45.636;11.756;2023-09-30T10:46:48;13.43;;;7.07;;
73136;SDS011;67767;45.636;11.756;2023-09-30T10:49:15;13.63;;;7.47;;
73136;SDS011;67767;45.636;11.756;2023-09-30T10:51:49;11.48;;;6.78;;
73136;SDS011;67767;45.636;11.756;2023-09-30T10:54:30;11.60;;;6.73;;
73136;SDS011;67767;45.636;11.756;2023-09-30T10:56:58;12.35;;;7.28;;
73136;SDS011;67767;45.636;11.756;2023-09-30T10:59:28;14.68;;;7.30;;
73136;SDS011;67767;45.636;11.756;2023-09-30T11:02:00;11.15;;;7.25;;
73136;SDS011;67767;45.636;11.756;2023-09-30T11:04:26;13.10;;;8.75;;
73136;SDS011;67767;45.636;11.756;2023-09-30T11:06:54;10.83;;;7.13;;
73136;SDS011;67767;45.636;11.756;2023-09-30T11:09:21;12.52;;;7.78;;
73136;SDS011;67767;45.636;11.756;2023-09-30T11:11:51;11.32;;;8.05;;
73136;SDS011;67767;45.636;11.756;2023-09-30T11:14:25;17.05;;;9.30;;
73136;SDS011;67767;45.636;11.756;2023-09-30T11:16:54;13.80;;;8.73;;
73136;SDS011;67767;45.636;11.756;2023-09-30T11:19:21;14.50;;;8.63;;
73136;SDS011;67767;45.636;11.756;2023-09-30T11:21:49;17.50;;;9.50;;
73136;SDS011;67767;45.636;11.756;2023-09-30T11:24:15;12.52;;;8.73;;
73136;SDS011;67767;45.636;11.756;2023-09-30T11:26:41;15.43;;;9.50;;
73136;SDS011;67767;45.636;11.756;2023-09-30T11:29:08;13.80;;;8.73;;
73136;SDS011;67767;45.636;11.756;2023-09-30T11:31:41;12.43;;;8.55;;
73136;SDS011;67767;45.636;11.756;2023-09-30T11:34:09;14.05;;;8.57;;
73136;SDS011;67767;45.636;11.756;2023-09-30T11:36:37;12.60;;;9.02;;
73136;SDS011;67767;45.636;11.756;2023-09-30T11:39:04;12.32;;;8.82;;
73136;SDS011;67767;45.636;11.756;2023-09-30T11:41:34;13.47;;;7.97;;
73136;SDS011;67767;45.636;11.756;2023-09-30T11:44:11;14.68;;;8.13;;
73136;SDS011;67767;45.636;11.756;2023-09-30T11:46:53;13.38;;;8.30;;
73136;SDS011;67767;45.636;11.756;2023-09-30T11:51:57;13.75;;;7.63;;
73136;SDS011;67767;45.636;11.756;2023-09-30T11:54:28;13.20;;;8.30;;
73136;SDS011;67767;45.636;11.756;2023-09-30T11:57:01;13.32;;;7.68;;
73136;SDS011;67767;45.636;11.756;2023-09-30T11:59:28;11.85;;;8.30;;
73136;SDS011;67767;45.636;11.756;2023-09-30T12:01:54;13.43;;;9.02;;
73136;SDS011;67767;45.636;11.756;2023-09-30T12:04:20;10.65;;;7.43;;
73136;SDS011;67767;45.636;11.756;2023-09-30T12:06:46;13.13;;;8.70;;
73136;SDS011;67767;45.636;11.756;2023-09-30T12:09:13;16.50;;;8.88;;
73136;SDS011;67767;45.636;11.756;2023-09-30T12:11:47;12.95;;;7.63;;
73136;SDS011;67767;45.636;11.756;2023-09-30T12:14:14;13.73;;;7.60;;
73136;SDS011;67767;45.636;11.756;2023-09-30T12:16:40;12.00;;;7.80;;
73136;SDS011;67767;45.636;11.756;2023-09-30T12:19:06;13.37;;;7.83;;
73136;SDS011;67767;45.636;11.756;2023-09-30T12:21:33;12.30;;;7.60;;
73136;SDS011;67767;45.636;11.756;2023-09-30T12:24:02;17.33;;;8.35;;
73136;SDS011;67767;45.636;11.756;2023-09-30T12:26:30;13.48;;;7.32;;
73136;SDS011;67767;45.636;11.756;2023-09-30T12:28:56;14.73;;;8.10;;
73136;SDS011;67767;45.636;11.756;2023-09-30T12:31:22;11.63;;;6.63;;
73136;SDS011;67767;45.636;11.756;2023-09-30T12:33:48;11.55;;;6.82;;
73136;SDS011;67767;45.636;11.756;2023-09-30T12:36:16;12.07;;;8.00;;
73136;SDS011;67767;45.636;11.756;2023-09-30T12:38:42;14.20;;;8.80;;
73136;SDS011;67767;45.636;11.756;2023-09-30T12:41:08;11.68;;;7.50;;
73136;SDS011;67767;45.636;11.756;2023-09-30T12:43:34;11.13;;;8.05;;
73136;SDS011;67767;45.636;11.756;2023-09-30T12:46:00;15.73;;;7.90;;
73136;SDS011;67767;45.636;11.756;2023-09-30T12:48:26;13.27;;;7.95;;
73136;SDS011;67767;45.636;11.756;2023-09-30T12:50:51;11.13;;;7.97;;
73136;SDS011;67767;45.636;11.756;2023-09-30T12:53:17;11.87;;;7.00;;
73136;SDS011;67767;45.636;11.756;2023-09-30T12:55:43;13.30;;;7.43;;
73136;SDS011;67767;45.636;11.756;2023-09-30T12:58:09;11.43;;;7.75;;
73136;SDS011;67767;45.636;11.756;2023-09-30T13:00:35;11.70;;;7.20;;
73136;SDS011;67767;45.636;11.756;2023-09-30T13:03:01;13.70;;;7.18;;
73136;SDS011;67767;45.636;11.756;2023-09-30T13:05:27;11.30;;;7.07;;
73136;SDS011;67767;45.636;11.756;2023-09-30T13:07:56;11.73;;;7.55;;
73136;SDS011;67767;45.636;11.756;2023-09-30T13:10:22;15.30;;;7.68;;
73136;SDS011;67767;45.636;11.756;2023-09-30T13:12:48;15.30;;;7.15;;
73136;SDS011;67767;45.636;11.756;2023-09-30T13:15:19;12.98;;;8.10;;
73136;SDS011;67767;45.636;11.756;2023-09-30T13:17:46;13.23;;;6.60;;
73136;SDS011;67767;45.636;11.756;2023-09-30T13:20:12;10.55;;;7.03;;
73136;SDS011;67767;45.636;11.756;2023-09-30T13:22:38;10.45;;;8.00;;
73136;SDS011;67767;45.636;11.756;2023-09-30T13:25:07;12.00;;;7.47;;
73136;SDS011;67767;45.636;11.756;2023-09-30T13:27:33;12.88;;;6.47;;
73136;SDS011;67767;45.636;11.756;2023-09-30T13:29:59;13.20;;;5.85;;
73136;SDS011;67767;45.636;11.756;2023-09-30T13:32:26;10.32;;;5.22;;
73136;SDS011;67767;45.636;11.756;2023-09-30T13:34:52;14.30;;;5.70;;
73136;SDS011;67767;45.636;11.756;2023-09-30T13:37:19;13.82;;;6.18;;
73136;SDS011;67767;45.636;11.756;2023-09-30T13:39:45;10.32;;;6.18;;
73136;SDS011;67767;45.636;11.756;2023-09-30T13:42:11;10.20;;;5.90;;
73136;SDS011;67767;45.636;11.756;2023-09-30T13:44:36;10.00;;;5.50;;
73136;SDS011;67767;45.636;11.756;2023-09-30T13:47:02;12.70;;;5.60;;
73136;SDS011;67767;45.636;11.756;2023-09-30T13:49:28;11.73;;;6.03;;
73136;SDS011;67767;45.636;11.756;2023-09-30T13:51:58;9.23;;;5.57;;
73136;SDS011;67767;45.636;11.756;2023-09-30T13:54:24;9.18;;;5.55;;
73136;SDS011;67767;45.636;11.756;2023-09-30T13:56:50;11.47;;;6.00;;
73136;SDS011;67767;45.636;11.756;2023-09-30T13:59:15;10.55;;;6.00;;
73136;SDS011;67767;45.636;11.756;2023-09-30T14:01:41;11.10;;;6.30;;
73136;SDS011;67767;45.636;11.756;2023-09-30T14:04:07;11.77;;;6.15;;
73136;SDS011;67767;45.636;11.756;2023-09-30T14:06:33;13.43;;;6.27;;
73136;SDS011;67767;45.636;11.756;2023-09-30T14:08:59;12.55;;;6.47;;
73136;SDS011;67767;45.636;11.756;2023-09-30T14:11:25;11.00;;;6.00;;
73136;SDS011;67767;45.636;11.756;2023-09-30T14:13:51;9.50;;;6.30;;
73136;SDS011;67767;45.636;11.756;2023-09-30T14:16:17;9.00;;;6.20;;
73136;SDS011;67767;45.636;11.756;2023-09-30T14:18:42;9.87;;;6.10;;
73136;SDS011;67767;45.636;11.756;2023-09-30T14:21:10;12.77;;;6.55;;
73136;SDS011;67767;45.636;11.756;2023-09-30T14:23:35;11.20;;;6.10;;
73136;SDS011;67767;45.636;11.756;2023-09-30T14:26:01;9.43;;;5.93;;
73136;SDS011;67767;45.636;11.756;2023-09-30T14:28:35;12.88;;;6.20;;
73136;SDS011;67767;45.636;11.756;2023-09-30T14:31:04;11.88;;;5.80;;
73136;SDS011;67767;45.636;11.756;2023-09-30T14:33:30;10.05;;;6.22;;
73136;SDS011;67767;45.636;11.756;2023-09-30T14:35:56;10.50;;;5.53;;
73136;SDS011;67767;45.636;11.756;2023-09-30T14:38:22;9.43;;;5.57;;